KHII/HII METAR and TAF weather

Enter ICAO airport designator
Station Type Date Time Source
KHII METAR 2021/07/29 02:15 UTC NOAA

KHII 290215Z AUTO 20004KT 10SM CLR 37/13 A2982 RMK AO2


Station Type Date Time Source
KHII Decoded METAR 2021/07/29 02:15 UTC NOAA

Station name not available
Jul 28, 2021 - 10:15 PM EDT / 2021.07.29 0215 UTC
Wind: from the SSW (200 degrees) at 5 MPH (4 KT):0
Visibility: 10 mile(s):0
Sky conditions: clear
Temperature: 98 F (37 C)
Heat index: 95.9 F (35.5 C):1
Dew Point: 55 F (13 C)
Relative Humidity: 23%
Pressure (altimeter): 29.82 in. Hg (1009 hPa)
ob: KHII 290215Z AUTO 20004KT 10SM CLR 37/13 A2982 RMK AO2
cycle: 2

Station Type Date Time Source
KHII TAF UTC NOAA

Error!

Example: see airport list